createdAt,value
2018-07-02T00:00:13.368Z,13.67
2018-07-02T00:01:14.360Z,13.64
2018-07-02T00:03:13.720Z,13.66
2018-07-02T00:04:28.374Z,13.67
2018-07-02T00:05:14.882Z,13.6
2018-07-02T00:06:13.901Z,13.67
2018-07-02T00:07:28.162Z,13.69
2018-07-02T00:08:28.504Z,13.59
2018-07-02T00:09:13.607Z,13.63
2018-07-02T00:10:13.917Z,13.63
2018-07-02T00:11:13.950Z,13.55
2018-07-02T00:12:13.925Z,13.57
2018-07-02T00:13:28.609Z,13.57
2018-07-02T00:14:14.717Z,13.54
2018-07-02T00:15:14.001Z,13.52
2018-07-02T00:16:14.113Z,13.51
2018-07-02T00:17:14.057Z,13.42
2018-07-02T00:18:14.306Z,13.57
2018-07-02T00:19:14.091Z,13.46
2018-07-02T00:20:13.807Z,13.44
2018-07-02T00:21:14.122Z,13.41
2018-07-02T00:22:15.181Z,13.32
2018-07-02T00:23:14.192Z,13.3
2018-07-02T00:24:14.164Z,13.33
2018-07-02T00:25:13.941Z,13.26
2018-07-02T00:26:13.935Z,13.26
2018-07-02T00:27:13.949Z,13.3
2018-07-02T00:28:14.258Z,13.26
2018-07-02T00:29:28.926Z,13.29
2018-07-02T00:30:14.593Z,13.2
2018-07-02T00:31:14.042Z,13.2
2018-07-02T00:32:14.395Z,13.22
2018-07-02T00:33:14.365Z,13.14
2018-07-02T00:34:29.273Z,13.12
2018-07-02T00:35:14.409Z,13.11
2018-07-02T00:36:14.467Z,13.15
2018-07-02T00:37:14.480Z,13.17
2018-07-02T00:38:14.497Z,13.05
2018-07-02T00:39:29.183Z,13.1
2018-07-02T00:40:14.534Z,13
2018-07-02T00:41:14.549Z,12.96
2018-07-02T00:42:14.563Z,12.9
2018-07-02T00:43:15.160Z,12.93
2018-07-02T00:45:14.347Z,12.95
2018-07-02T00:46:14.666Z,12.9
2018-07-02T00:47:15.797Z,12.83
2018-07-02T00:48:14.426Z,12.79
2018-07-02T00:49:15.807Z,12.82
2018-07-02T00:50:14.745Z,12.82
2018-07-02T00:51:14.480Z,12.79
2018-07-02T00:52:14.500Z,12.77
2018-07-02T00:53:15.067Z,12.68
2018-07-02T00:54:14.817Z,12.75
2018-07-02T00:55:14.849Z,12.68
2018-07-02T00:56:15.848Z,12.65
2018-07-02T00:57:14.970Z,12.68
2018-07-02T00:58:14.642Z,12.65
2018-07-02T00:59:14.675Z,12.6
2018-07-02T01:00:14.985Z,12.56
2018-07-02T01:01:14.995Z,12.47
2018-07-02T01:02:15.023Z,12.54
2018-07-02T01:03:15.830Z,12.54
2018-07-02T01:04:15.081Z,12.56
2018-07-02T01:05:15.080Z,12.5
2018-07-02T01:06:14.827Z,12.49
2018-07-02T01:07:15.119Z,12.42
2018-07-02T01:08:14.860Z,12.46
2018-07-02T01:09:15.171Z,12.49
2018-07-02T01:10:16.267Z,12.5
2018-07-02T01:11:14.921Z,12.49
2018-07-02T01:12:14.960Z,12.41
2018-07-02T01:13:16.082Z,12.34
2018-07-02T01:14:15.271Z,12.39
2018-07-02T01:15:15.338Z,12.34
2018-07-02T01:16:29.949Z,12.39
2018-07-02T01:17:15.363Z,12.28
2018-07-02T01:19:15.912Z,12.31
2018-07-02T01:20:15.129Z,12.24
2018-07-02T01:21:15.175Z,12.21
2018-07-02T01:22:15.464Z,12.19
2018-07-02T01:23:16.000Z,12.23
2018-07-02T01:24:30.109Z,12.27
2018-07-02T01:25:15.515Z,12.24
2018-07-02T01:26:15.522Z,12.2
2018-07-02T01:27:15.542Z,12.19
2018-07-02T01:29:16.015Z,12.19
2018-07-02T01:30:15.643Z,12.17
2018-07-02T01:31:15.625Z,11.96
2018-07-02T01:32:30.007Z,11.95
2018-07-02T01:33:15.395Z,12.02
2018-07-02T01:34:15.418Z,12.01
2018-07-02T01:35:15.707Z,11.99
2018-07-02T01:36:15.783Z,11.91
2018-07-02T01:38:15.786Z,11.99
2018-07-02T01:39:16.943Z,11.94
2018-07-02T01:40:15.872Z,11.78
2018-07-02T01:42:15.864Z,11.79
2018-07-02T01:43:15.881Z,11.85
2018-07-02T01:44:16.284Z,11.7
2018-07-02T01:45:15.637Z,11.75
2018-07-02T01:46:15.676Z,11.79
2018-07-02T01:47:16.000Z,11.69
2018-07-02T01:48:30.345Z,11.79
2018-07-02T01:49:16.020Z,11.72
2018-07-02T01:50:16.061Z,11.72
2018-07-02T01:51:16.975Z,11.67
2018-07-02T01:52:16.091Z,11.6
2018-07-02T01:53:16.100Z,11.6
2018-07-02T01:54:16.900Z,11.61
2018-07-02T01:55:16.172Z,11.72
2018-07-02T01:56:16.197Z,11.65
2018-07-02T01:57:16.189Z,11.61
2018-07-02T01:58:16.377Z,11.52
2018-07-02T01:59:30.579Z,11.64
2018-07-02T02:00:15.958Z,11.58
2018-07-02T02:01:16.264Z,11.58
2018-07-02T02:02:16.647Z,11.61
2018-07-02T02:03:16.318Z,11.72
2018-07-02T02:04:30.966Z,11.67
2018-07-02T02:06:16.576Z,11.54
2018-07-02T02:07:16.384Z,11.52
2018-07-02T02:08:31.049Z,11.49
2018-07-02T02:09:16.441Z,11.6
2018-07-02T02:10:16.620Z,11.49
2018-07-02T02:11:16.476Z,11.51
2018-07-02T02:12:16.486Z,11.49
2018-07-02T02:13:16.500Z,11.47
2018-07-02T02:14:16.346Z,11.42
2018-07-02T02:15:16.280Z,11.37
2018-07-02T02:16:31.211Z,11.46
2018-07-02T02:17:16.601Z,11.43
2018-07-02T02:18:16.904Z,11.44
2018-07-02T02:19:31.868Z,11.35
2018-07-02T02:20:16.688Z,11.37
2018-07-02T02:21:16.692Z,11.37
2018-07-02T02:22:31.811Z,11.32
2018-07-02T02:23:16.725Z,11.29
2018-07-02T02:24:16.735Z,11.32
2018-07-02T02:25:16.757Z,11.35
2018-07-02T02:26:16.813Z,11.29
2018-07-02T02:27:17.241Z,11.28
2018-07-02T02:28:16.814Z,11.35
2018-07-02T02:29:16.868Z,11.35
2018-07-02T02:30:16.869Z,11.42
2018-07-02T02:31:17.671Z,11.46
2018-07-02T02:32:16.363Z,11.44
2018-07-02T02:33:16.959Z,11.47
2018-07-02T02:34:17.002Z,11.4
2018-07-02T02:35:18.009Z,11.47
2018-07-02T02:36:17.030Z,11.4
2018-07-02T02:37:17.005Z,11.44
2018-07-02T02:38:17.199Z,11.4
2018-07-02T02:39:17.958Z,11.44
2018-07-02T02:40:17.073Z,11.35
2018-07-02T02:41:17.108Z,11.43
2018-07-02T02:42:17.103Z,11.4
2018-07-02T02:43:18.191Z,11.51
2018-07-02T02:44:17.162Z,11.62
2018-07-02T02:45:31.549Z,11.44
2018-07-02T02:46:17.212Z,11.4
2018-07-02T02:47:18.237Z,11.43
2018-07-02T02:48:16.983Z,11.39
2018-07-02T02:49:17.011Z,11.39
2018-07-02T02:50:17.025Z,11.43
2018-07-02T02:51:31.675Z,11.4
2018-07-02T02:52:17.336Z,11.35
2018-07-02T02:53:17.352Z,11.37
2018-07-02T02:55:18.287Z,11.39
2018-07-02T02:56:17.426Z,11.36
2018-07-02T02:57:17.432Z,11.44
2018-07-02T02:58:17.458Z,11.36
2018-07-02T02:59:32.662Z,11.44
2018-07-02T03:00:17.220Z,11.44
2018-07-02T03:01:17.243Z,11.44
2018-07-02T03:02:17.553Z,11.37
2018-07-02T03:03:17.582Z,11.35
2018-07-02T03:04:18.642Z,11.35
2018-07-02T03:05:17.600Z,11.35
2018-07-02T03:06:17.633Z,11.22
2018-07-02T03:07:32.278Z,11.37
2018-07-02T03:08:32.693Z,11.28
2018-07-02T03:09:32.330Z,11.32
2018-07-02T03:10:17.454Z,11.25
2018-07-02T03:11:17.733Z,11.32
2018-07-02T03:12:17.198Z,11.25
2018-07-02T03:13:17.762Z,11.27
2018-07-02T03:14:17.785Z,11.25
2018-07-02T03:15:17.800Z,11.32
2018-07-02T03:16:32.469Z,11.33
2018-07-02T03:18:17.870Z,11.32
2018-07-02T03:19:17.899Z,11.25
2018-07-02T03:20:32.645Z,11.24
2018-07-02T03:21:18.327Z,11.32
2018-07-02T03:22:17.706Z,11.4
2018-07-02T03:23:32.625Z,11.28
2018-07-02T03:24:18.023Z,11.19
2018-07-02T03:25:18.831Z,11.27
2018-07-02T03:26:18.056Z,11.25
2018-07-02T03:27:17.781Z,11.35
2018-07-02T03:29:18.882Z,11.24
2018-07-02T03:30:32.506Z,11.27
2018-07-02T03:31:18.134Z,11.24
2018-07-02T03:32:17.890Z,11.25
2018-07-02T03:33:19.210Z,11.27
2018-07-02T03:35:17.940Z,11.24
2018-07-02T03:36:17.961Z,11.35
2018-07-02T03:37:18.325Z,11.35
2018-07-02T03:38:18.008Z,11.36
2018-07-02T03:39:32.965Z,11.35
2018-07-02T03:40:18.058Z,11.24
2018-07-02T03:41:19.564Z,11.28
2018-07-02T03:42:18.353Z,11.33
2018-07-02T03:43:18.380Z,11.22
2018-07-02T03:44:18.404Z,11.24
2018-07-02T03:45:18.995Z,11.28
2018-07-02T03:46:18.469Z,11.36
2018-07-02T03:47:32.840Z,11.29
2018-07-02T03:48:18.477Z,11.39
2018-07-02T03:49:19.096Z,11.36
2018-07-02T03:50:18.529Z,11.39
2018-07-02T03:52:18.565Z,11.32
2018-07-02T03:53:18.653Z,11.35
2018-07-02T03:54:33.281Z,11.37
2018-07-02T03:55:18.745Z,11.35
2018-07-02T03:56:18.649Z,11.39
2018-07-02T03:57:18.701Z,11.43
2018-07-02T03:58:18.699Z,11.42
2018-07-02T04:00:18.959Z,11.49
2018-07-02T04:01:18.993Z,11.46
2018-07-02T04:02:18.775Z,11.54
2018-07-02T04:04:19.426Z,11.57
2018-07-02T04:05:18.841Z,11.55
2018-07-02T04:06:33.520Z,11.67
2018-07-02T04:07:18.625Z,11.58
2018-07-02T04:08:19.374Z,11.73
2018-07-02T04:09:33.565Z,11.7
2018-07-02T04:10:18.951Z,11.76
2018-07-02T04:11:18.698Z,11.7
2018-07-02T04:12:19.170Z,11.72
2018-07-02T04:13:19.768Z,11.83
2018-07-02T04:14:18.762Z,12.09
2018-07-02T04:15:19.070Z,12.64
2018-07-02T04:16:19.076Z,13.51
2018-07-02T04:17:19.087Z,14.1
2018-07-02T04:18:20.008Z,14.73
2018-07-02T04:19:18.590Z,15.25
2018-07-02T04:20:19.165Z,15.68
2018-07-02T04:21:19.822Z,16.12
2018-07-02T04:22:33.578Z,16.49
2018-07-02T04:23:19.505Z,16.76
2018-07-02T04:24:19.279Z,17.38
2018-07-02T04:25:20.327Z,17.25
2018-07-02T04:26:33.951Z,17.25
2018-07-02T04:27:19.325Z,17.23
2018-07-02T04:28:20.260Z,17.23
2018-07-02T04:29:19.401Z,17.95
2018-07-02T04:30:19.429Z,18.41
2018-07-02T04:31:19.716Z,18.98
2018-07-02T04:32:19.197Z,19
2018-07-02T04:33:19.212Z,18.67
2018-07-02T04:34:19.770Z,19.47
2018-07-02T04:35:20.640Z,19.5
2018-07-02T04:36:19.580Z,19.76
2018-07-02T04:37:19.043Z,20.03
2018-07-02T04:38:19.644Z,20.38
2018-07-02T04:39:20.826Z,21.32
2018-07-02T04:40:20.172Z,21.58
2018-07-02T04:41:19.429Z,22.21
2018-07-02T04:42:34.945Z,22.92
2018-07-02T04:43:20.740Z,23.04
2018-07-02T04:44:20.859Z,23.23
2018-07-02T04:45:20.786Z,23.16
2018-07-02T04:46:20.200Z,23.4
2018-07-02T04:47:20.180Z,23.66
2018-07-02T04:48:20.936Z,23.84
2018-07-02T04:49:20.190Z,24.24
2018-07-02T04:50:21.043Z,24.69
2018-07-02T04:51:20.594Z,24.78
2018-07-02T04:52:34.386Z,25.24
2018-07-02T04:54:21.243Z,25.6
2018-07-02T04:55:20.352Z,25.87
2018-07-02T04:56:20.430Z,26.44
2018-07-02T04:57:34.805Z,25.73
2018-07-02T04:58:35.407Z,25.55
2018-07-02T04:59:21.433Z,25.61
2018-07-02T05:00:19.972Z,26.01
2018-07-02T05:01:20.261Z,26.17
2018-07-02T05:02:20.288Z,26.06
2018-07-02T05:03:20.386Z,26.4
2018-07-02T05:04:20.091Z,26.99
2018-07-02T05:05:20.385Z,27.34
2018-07-02T05:06:20.415Z,27.55
2018-07-02T05:07:20.188Z,27.82
2018-07-02T05:08:20.222Z,27.67
2018-07-02T05:09:20.508Z,27.96
2018-07-02T05:10:20.539Z,28.62
2018-07-02T05:11:20.575Z,28.76
2018-07-02T05:12:20.352Z,28.67
2018-07-02T05:13:20.638Z,27.94
2018-07-02T05:14:35.338Z,28.49
2018-07-02T05:15:20.449Z,28.73
2018-07-02T05:16:20.804Z,29.02
2018-07-02T05:17:20.776Z,28.92
2018-07-02T05:18:20.877Z,29.34
2018-07-02T05:19:20.842Z,29.19
2018-07-02T05:20:20.872Z,29.18
2018-07-02T05:21:35.574Z,29.48
2018-07-02T05:22:20.941Z,29.49
2018-07-02T05:23:20.976Z,30.13
2018-07-02T05:24:35.673Z,30.15
2018-07-02T05:25:35.450Z,30.24
2018-07-02T05:26:20.819Z,29.85
2018-07-02T05:27:20.860Z,30.1
2018-07-02T05:28:21.245Z,30
2018-07-02T05:29:35.588Z,30.32
2018-07-02T05:30:20.700Z,30.1
2018-07-02T05:31:21.320Z,29.33
2018-07-02T05:33:21.321Z,30.6
2018-07-02T05:35:20.874Z,30.95
2018-07-02T05:36:21.424Z,31.38
2018-07-02T05:37:21.462Z,31.47
2018-07-02T05:38:21.506Z,31.38
2018-07-02T05:39:21.532Z,31.93
2018-07-02T05:40:21.564Z,31.88
2018-07-02T05:41:21.601Z,31.26
2018-07-02T05:42:21.633Z,30.95
2018-07-02T05:43:21.669Z,31.34
2018-07-02T05:44:21.706Z,31.17
2018-07-02T05:45:21.741Z,31.41
2018-07-02T05:46:21.778Z,30.79
2018-07-02T05:47:21.812Z,30.7
2018-07-02T05:48:21.847Z,31.06
2018-07-02T05:49:21.888Z,31.28
2018-07-02T05:50:21.915Z,31.72
2018-07-02T05:52:21.991Z,32.43
2018-07-02T05:53:21.816Z,32.65
2018-07-02T05:54:22.068Z,31.63
2018-07-02T05:55:22.095Z,31.75
2018-07-02T05:56:22.139Z,31.06
2018-07-02T05:57:21.910Z,29.48
2018-07-02T05:58:22.205Z,30.04
2018-07-02T06:01:36.976Z,28.96
2018-07-02T06:02:22.345Z,29.31
2018-07-02T06:03:22.387Z,28.7
2018-07-02T06:04:22.419Z,28.88
2018-07-02T06:05:22.453Z,29.85
2018-07-02T06:06:22.493Z,30.34
2018-07-02T06:07:22.269Z,30.89
2018-07-02T06:08:22.613Z,31.36
2018-07-02T06:09:22.341Z,31.13
2018-07-02T06:10:22.637Z,30.72
2018-07-02T06:11:22.674Z,29.51
2018-07-02T06:12:22.708Z,29.55
2018-07-02T06:13:22.879Z,29.82
2018-07-02T06:14:22.791Z,29.45
2018-07-02T06:15:22.820Z,29.55
2018-07-02T06:16:22.596Z,28.76
2018-07-02T06:17:37.552Z,29.34
2018-07-02T06:18:22.922Z,29.8
2018-07-02T06:19:22.968Z,29.64
2018-07-02T06:20:23.001Z,29.48
2018-07-02T06:21:23.048Z,28.52
2018-07-02T06:22:22.809Z,28.73
2018-07-02T06:24:37.807Z,30.46
2018-07-02T06:25:23.183Z,29.92
2018-07-02T06:26:37.879Z,29.55
2018-07-02T06:27:22.992Z,30.04
2018-07-02T06:28:23.288Z,29.12
2018-07-02T06:29:23.323Z,28.54
2018-07-02T06:30:23.470Z,28.03
2018-07-02T06:31:23.403Z,27.63
2018-07-02T06:33:38.131Z,26.99
2018-07-02T06:35:23.543Z,27.78
2018-07-02T06:36:23.316Z,28.41
2018-07-02T06:37:23.352Z,29
2018-07-02T06:38:23.652Z,28.33
2018-07-02T06:39:23.692Z,28.83
2018-07-02T06:40:23.480Z,28.18
2018-07-02T06:41:23.776Z,28
2018-07-02T06:42:23.798Z,28.89
2018-07-02T06:43:23.834Z,29.74
2018-07-02T06:44:23.614Z,30.58
2018-07-02T06:45:23.642Z,29.61
2018-07-02T06:46:23.940Z,28.68
2018-07-02T06:47:23.975Z,28.21
2018-07-02T06:48:23.798Z,28.62
2018-07-02T06:49:38.707Z,28.64
2018-07-02T06:50:24.083Z,29.65
2018-07-02T06:51:24.121Z,29.7
2018-07-02T06:53:23.933Z,29.14
2018-07-02T06:54:24.227Z,29.04
2018-07-02T06:55:24.265Z,28.8
2018-07-02T06:56:24.302Z,28.9
2018-07-02T06:57:24.335Z,28.39
2018-07-02T06:58:39.069Z,27.99
2018-07-02T07:00:24.441Z,29.42
2018-07-02T07:02:24.265Z,29.95
2018-07-02T07:03:24.295Z,30.15
2018-07-02T07:04:39.253Z,28.77
2018-07-02T07:05:24.637Z,29.05
2018-07-02T07:06:24.669Z,29.45
2018-07-02T07:07:24.703Z,29.98
2018-07-02T07:08:24.737Z,29.63
2018-07-02T07:09:24.772Z,29.45
2018-07-02T07:10:24.808Z,29
2018-07-02T07:11:24.892Z,29.94
2018-07-02T07:12:24.620Z,29.65
2018-07-02T07:13:24.660Z,28.62
2018-07-02T07:14:39.359Z,28.83
2018-07-02T07:15:24.988Z,29.33
2018-07-02T07:16:25.026Z,29.55
2018-07-02T07:17:25.063Z,29.95
2018-07-02T07:18:25.104Z,29.87
2018-07-02T07:19:25.132Z,29.23
2018-07-02T07:20:25.168Z,28.55
2018-07-02T07:21:25.214Z,29.08
2018-07-02T07:22:25.242Z,29.21
2018-07-02T07:23:25.276Z,28.49
2018-07-02T07:24:25.060Z,29.02
2018-07-02T07:25:25.092Z,30.01
2018-07-02T07:26:25.132Z,31.13
2018-07-02T07:27:25.427Z,31.41
2018-07-02T07:28:25.463Z,30.29
2018-07-02T07:29:25.519Z,28.88
2018-07-02T07:30:25.276Z,28.85
2018-07-02T07:31:25.569Z,28.51
2018-07-02T07:32:25.343Z,28.43
2018-07-02T07:33:25.382Z,27.5
2018-07-02T07:35:25.452Z,27.67
2018-07-02T07:36:40.411Z,28.8
2018-07-02T07:37:25.610Z,29.52
2018-07-02T07:38:25.304Z,29.04
2018-07-02T07:39:25.604Z,27.85
2018-07-02T07:40:25.902Z,28.21
2018-07-02T07:41:25.930Z,28.37
2018-07-02T07:42:25.967Z,29.24
2018-07-02T07:43:25.998Z,29.45
2018-07-02T07:44:26.033Z,30.31
2018-07-02T07:45:26.070Z,30.6
2018-07-02T07:46:25.846Z,29.68
2018-07-02T07:47:26.146Z,29.37
2018-07-02T07:48:26.178Z,28.83
2018-07-02T07:49:25.956Z,29.26
2018-07-02T07:50:26.249Z,29.64
2018-07-02T07:51:26.290Z,30.08
2018-07-02T07:52:40.982Z,30.35
2018-07-02T07:53:26.364Z,30.54
2018-07-02T07:54:26.390Z,30.42
2018-07-02T07:56:26.464Z,31.23
2018-07-02T07:57:26.497Z,31.53
2018-07-02T07:58:26.533Z,31.44
2018-07-02T08:00:26.608Z,30.61
2018-07-02T08:01:26.647Z,30.11
2018-07-02T08:02:26.676Z,29.6
2018-07-02T08:03:26.725Z,29.55
2018-07-02T08:05:26.793Z,30.38
2018-07-02T08:06:26.834Z,29.39
2018-07-02T08:07:26.859Z,29.87
2018-07-02T08:08:41.553Z,30.47
2018-07-02T08:09:26.668Z,30.55
2018-07-02T08:10:41.680Z,30.31
2018-07-02T08:11:26.998Z,29.97
2018-07-02T08:12:27.174Z,30.61
2018-07-02T08:13:26.810Z,31.21
2018-07-02T08:14:27.106Z,31.58
2018-07-02T08:15:27.144Z,30.45
2018-07-02T08:16:26.918Z,29.74
2018-07-02T08:17:41.875Z,29.05
2018-07-02T08:18:27.245Z,28.89
2018-07-02T08:19:27.284Z,29.28
2018-07-02T08:20:27.316Z,29.65
2018-07-02T08:21:27.350Z,29.89
2018-07-02T08:22:27.388Z,28.83
2018-07-02T08:23:27.422Z,28.46
2018-07-02T08:24:42.120Z,28.34
2018-07-02T08:25:27.241Z,28.06
2018-07-02T08:26:27.267Z,27.96
2018-07-02T08:27:27.760Z,28.66
2018-07-02T08:29:27.373Z,27.77
2018-07-02T08:30:27.665Z,27.36
2018-07-02T08:31:27.444Z,27.18
2018-07-02T08:32:42.400Z,27.14
2018-07-02T08:33:27.515Z,27.66
2018-07-02T08:34:27.292Z,28.56
2018-07-02T08:35:27.583Z,29.42
2018-07-02T08:36:27.882Z,30.31
2018-07-02T08:37:27.656Z,30.99
2018-07-02T08:38:27.691Z,31.48
2018-07-02T08:39:42.642Z,31.75
2018-07-02T08:40:42.685Z,31.02
2018-07-02T08:42:28.085Z,29.24
2018-07-02T08:43:27.864Z,28.52
2018-07-02T08:44:27.894Z,28.88
2018-07-02T08:45:28.186Z,29.15
2018-07-02T08:46:27.969Z,29.55
2018-07-02T08:47:27.996Z,29.45
2018-07-02T08:48:28.046Z,29.31
2018-07-02T08:49:28.322Z,28.68
2018-07-02T08:50:28.359Z,28.77
2018-07-02T08:51:27.883Z,28.4
2018-07-02T08:52:27.910Z,28.68
2018-07-02T08:53:28.462Z,28.73
2018-07-02T08:54:28.244Z,29.23
2018-07-02T08:55:28.272Z,30.01
2018-07-02T08:56:28.315Z,30.8
2018-07-02T08:57:28.597Z,31.51
2018-07-02T08:58:28.713Z,31.26
2018-07-02T08:59:28.665Z,31.85
2018-07-02T09:00:28.699Z,31.76
2018-07-02T09:01:28.754Z,31.34
2018-07-02T09:02:28.767Z,30.53
2018-07-02T09:03:28.802Z,30.27
2018-07-02T09:04:28.838Z,31.09
2018-07-02T09:05:28.870Z,31.48
2018-07-02T09:06:28.916Z,32.08
2018-07-02T09:07:28.679Z,32.19
2018-07-02T09:08:28.714Z,32.28
2018-07-02T09:09:29.020Z,32.47
2018-07-02T09:10:29.043Z,31.69
2018-07-02T09:11:43.480Z,30.7
2018-07-02T09:12:28.851Z,29.57
2018-07-02T09:13:28.886Z,29
2018-07-02T09:14:28.919Z,29.02
2018-07-02T09:15:29.214Z,29.58
2018-07-02T09:17:29.024Z,29.87
2018-07-02T09:18:29.314Z,30.17
2018-07-02T09:19:29.362Z,30.34
2018-07-02T09:20:29.392Z,31.12
2018-07-02T09:22:43.854Z,30.79
2018-07-02T09:23:29.484Z,30.54
2018-07-02T09:24:29.262Z,29.43
2018-07-02T09:25:29.551Z,29.3
2018-07-02T09:26:29.585Z,29.39
2018-07-02T09:27:44.488Z,29.53
2018-07-02T09:28:29.655Z,29.12
2018-07-02T09:29:29.690Z,28.83
2018-07-02T09:30:29.722Z,29.79
2018-07-02T09:31:29.753Z,29.55
2018-07-02T09:32:30.127Z,29.83
2018-07-02T09:33:29.824Z,30.46
2018-07-02T09:34:29.853Z,30.76
2018-07-02T09:35:44.549Z,31.54
2018-07-02T09:36:29.917Z,32.08
2018-07-02T09:37:29.952Z,32.47
2018-07-02T09:39:30.330Z,32.66
2018-07-02T09:40:30.052Z,30.11
2018-07-02T09:41:30.082Z,29.15
2018-07-02T09:42:30.119Z,28.61
2018-07-02T09:43:44.813Z,27.67
2018-07-02T09:44:29.924Z,26.69
2018-07-02T09:45:30.223Z,26.63
2018-07-02T09:46:30.362Z,27.4
2018-07-02T09:47:29.765Z,28
2018-07-02T09:48:30.314Z,27.84
2018-07-02T09:49:30.126Z,28.58
2018-07-02T09:50:30.126Z,29.08
2018-07-02T09:51:30.418Z,30.07
2018-07-02T09:52:30.442Z,30.54
2018-07-02T09:53:44.882Z,30.62
2018-07-02T09:54:30.515Z,30.91
2018-07-02T09:55:30.540Z,30.79
2018-07-02T09:56:30.580Z,30.35
2018-07-02T09:57:30.602Z,30.15
2018-07-02T09:58:30.642Z,29.12
2018-07-02T09:59:45.330Z,27.62
2018-07-02T10:00:30.738Z,27.65
2018-07-02T10:01:30.217Z,28.88
2018-07-02T10:02:30.766Z,30.27
2018-07-02T10:04:30.570Z,31.57
2018-07-02T10:05:30.863Z,31.51
2018-07-02T10:06:30.757Z,30.77
2018-07-02T10:07:45.589Z,28.98
2018-07-02T10:08:30.971Z,28.39
2018-07-02T10:09:31.096Z,28.09
2018-07-02T10:10:30.762Z,28.49
2018-07-02T10:11:30.791Z,28.76
2018-07-02T10:12:31.111Z,29.02
2018-07-02T10:13:30.866Z,29.71
2018-07-02T10:14:45.809Z,30.77
2018-07-02T10:15:30.920Z,30.6
2018-07-02T10:16:31.214Z,29.09
2018-07-02T10:17:30.981Z,27.99
2018-07-02T10:18:31.272Z,27.17
2018-07-02T10:19:31.307Z,26.57
2018-07-02T10:20:31.088Z,26.67
2018-07-02T10:21:31.124Z,27.06
2018-07-02T10:22:46.062Z,27.02
2018-07-02T10:24:31.458Z,27.97
2018-07-02T10:25:31.237Z,27.96
2018-07-02T10:26:31.272Z,28.34
2018-07-02T10:27:31.561Z,28.52
2018-07-02T10:28:31.583Z,29.23
2018-07-02T10:29:31.739Z,29.6
2018-07-02T10:30:31.657Z,29.86
2018-07-02T10:31:46.653Z,30.02
2018-07-02T10:32:31.457Z,30.02
2018-07-02T10:33:31.734Z,30.15
2018-07-02T10:34:31.769Z,30.38
2018-07-02T10:35:31.807Z,30.08
2018-07-02T10:36:31.581Z,29.86
2018-07-02T10:37:31.862Z,29.02
2018-07-02T10:38:46.558Z,28.12
2018-07-02T10:39:46.588Z,27.44
2018-07-02T10:40:31.955Z,27.25
2018-07-02T10:41:31.987Z,27.32
2018-07-02T10:42:32.016Z,27.43
2018-07-02T10:43:32.047Z,27.18
2018-07-02T10:44:31.819Z,26.84
2018-07-02T10:45:32.105Z,26.62
2018-07-02T10:46:46.800Z,26.37
2018-07-02T10:48:31.939Z,26.39
2018-07-02T10:49:31.967Z,26.05
2018-07-02T10:50:32.362Z,25.72
2018-07-02T10:51:32.288Z,25.94
2018-07-02T10:52:32.320Z,26.02
2018-07-02T10:53:32.345Z,25.69
2018-07-02T10:54:32.378Z,25.65
2018-07-02T10:55:32.427Z,25.43
2018-07-02T10:56:32.178Z,25.55
2018-07-02T10:57:46.869Z,25.94
2018-07-02T10:58:32.505Z,26.06
2018-07-02T10:59:32.271Z,26.32
2018-07-02T11:00:32.553Z,26.47
2018-07-02T11:01:32.878Z,26.52
2018-07-02T11:02:47.018Z,26.06
2018-07-02T11:03:32.643Z,26.02
2018-07-02T11:04:32.411Z,26.15
2018-07-02T11:05:32.444Z,25.91
2018-07-02T11:06:32.736Z,25.27
2018-07-02T11:07:32.506Z,25.4
2018-07-02T11:08:32.788Z,25.6
2018-07-02T11:09:32.814Z,25.55
2018-07-02T11:10:32.842Z,25.58
2018-07-02T11:11:32.877Z,25.69
2018-07-02T11:12:32.923Z,25.72
2018-07-02T11:13:32.939Z,25.73
2018-07-02T11:14:32.963Z,25.82
2018-07-02T11:15:32.731Z,26.09
2018-07-02T11:16:33.021Z,26.39
2018-07-02T11:17:32.796Z,26.54
2018-07-02T11:18:47.737Z,26.21
2018-07-02T11:19:32.848Z,26.02
2018-07-02T11:20:33.135Z,26.15
2018-07-02T11:22:33.189Z,26.7
2018-07-02T11:23:33.276Z,27.27
2018-07-02T11:24:32.992Z,27.46
2018-07-02T11:25:33.278Z,27.69
2018-07-02T11:26:47.968Z,28.22
2018-07-02T11:27:33.078Z,28.29
2018-07-02T11:29:33.393Z,28.44
2018-07-02T11:30:33.424Z,28.25
2018-07-02T11:31:32.936Z,27.5
2018-07-02T11:32:33.477Z,27.09
2018-07-02T11:33:33.507Z,27.1
2018-07-02T11:34:48.198Z,27.22
2018-07-02T11:35:33.309Z,26.92
2018-07-02T11:37:33.967Z,26.36
2018-07-02T11:38:33.660Z,26.45
2018-07-02T11:39:33.683Z,26.05
2018-07-02T11:40:33.731Z,25.8
2018-07-02T11:41:33.737Z,25.88
2018-07-02T11:42:33.771Z,25.45
2018-07-02T11:43:33.799Z,25.76
2018-07-02T11:44:33.824Z,26.05
2018-07-02T11:45:33.865Z,26.23
2018-07-02T11:46:33.882Z,25.88
2018-07-02T11:47:33.930Z,25.85
2018-07-02T11:48:33.681Z,26.01
2018-07-02T11:49:48.777Z,26.18
2018-07-02T11:50:33.997Z,25.83
2018-07-02T11:53:34.096Z,25.91
2018-07-02T11:54:34.110Z,25.65
2018-07-02T11:55:34.142Z,25.62
2018-07-02T11:56:33.657Z,25.58
2018-07-02T11:57:34.465Z,25.62
2018-07-02T11:58:34.226Z,25.58
2018-07-02T11:59:34.265Z,25.5
2018-07-02T12:00:34.282Z,25.69
2018-07-02T12:01:34.312Z,25.6
2018-07-02T12:02:34.342Z,25.45
2018-07-02T12:03:34.377Z,25.52
2018-07-02T12:05:34.202Z,25.18
2018-07-02T12:06:34.451Z,24.99
2018-07-02T12:08:34.510Z,25.05
2018-07-02T12:11:34.596Z,25.02
2018-07-02T12:12:34.618Z,24.85
2018-07-02T12:13:34.652Z,24.57
2018-07-02T12:14:49.336Z,24.71
2018-07-02T12:15:34.704Z,25.03
2018-07-02T12:16:34.737Z,25.18
2018-07-02T12:17:34.762Z,25.15
2018-07-02T12:18:34.271Z,25.14
2018-07-02T12:19:34.566Z,25.39
2018-07-02T12:20:34.589Z,25.82
2018-07-02T12:21:49.278Z,25.9
2018-07-02T12:22:34.388Z,25.77
2018-07-02T12:23:34.923Z,25.99
2018-07-02T12:25:34.726Z,25.8
2018-07-02T12:26:34.750Z,25.39
2018-07-02T12:27:35.043Z,25.57
2018-07-02T12:28:35.068Z,25.94
2018-07-02T12:29:49.759Z,26.45
2018-07-02T12:31:35.150Z,27.39
2018-07-02T12:32:35.177Z,27.22
2018-07-02T12:33:35.486Z,27.1
2018-07-02T12:34:34.974Z,27.02
2018-07-02T12:35:35.001Z,26.29
2018-07-02T12:36:35.288Z,25.98
2018-07-02T12:37:49.981Z,25.73
2018-07-02T12:38:35.085Z,25.92
2018-07-02T12:39:35.115Z,25.72
2018-07-02T12:41:50.097Z,25.15
2018-07-02T12:42:35.463Z,25.4
2018-07-02T12:43:35.490Z,25.46
2018-07-02T12:44:50.177Z,24.76
2018-07-02T12:45:35.283Z,24.64
2018-07-02T12:46:35.313Z,24.22
2018-07-02T12:47:35.595Z,24.2
2018-07-02T12:48:35.374Z,24.34
2018-07-02T12:49:35.395Z,24.35
2018-07-02T12:50:35.440Z,24.52
2018-07-02T12:51:35.711Z,24.58
2018-07-02T12:52:35.736Z,24.73
2018-07-02T12:53:50.423Z,24.58
2018-07-02T12:54:35.606Z,24.45
2018-07-02T12:55:35.824Z,24.53
2018-07-02T12:56:35.847Z,24.24
2018-07-02T12:57:35.881Z,23.88
2018-07-02T12:58:35.903Z,23.91
2018-07-02T12:59:36.030Z,24.13
2018-07-02T13:00:35.968Z,24.13
2018-07-02T13:01:35.989Z,24.21
2018-07-02T13:02:50.674Z,24.42
2018-07-02T13:03:36.052Z,24.46
2018-07-02T13:04:35.805Z,24.58
2018-07-02T13:05:35.922Z,24.71
2018-07-02T13:06:36.130Z,24.98
2018-07-02T13:07:35.888Z,25.09
2018-07-02T13:08:35.917Z,25.02
2018-07-02T13:09:50.862Z,24.9
2018-07-02T13:10:36.237Z,24.95
2018-07-02T13:12:36.288Z,25.35
2018-07-02T13:14:36.342Z,25.55
2018-07-02T13:15:35.847Z,25.73
2018-07-02T13:16:36.393Z,25.75
2018-07-02T13:17:35.904Z,25.85
2018-07-02T13:18:36.445Z,25.73
2018-07-02T13:19:36.480Z,25.58
2018-07-02T13:20:51.180Z,25.62
2018-07-02T13:21:36.529Z,25.87
2018-07-02T13:22:36.305Z,26.17
2018-07-02T13:23:36.585Z,26.29
2018-07-02T13:24:51.271Z,26.37
2018-07-02T13:25:36.642Z,26.5
2018-07-02T13:26:36.665Z,26.62
2018-07-02T13:27:36.696Z,26.45
2018-07-02T13:28:36.464Z,26.01
2018-07-02T13:29:36.757Z,25.73
2018-07-02T13:30:36.778Z,25.62
2018-07-02T13:31:36.546Z,25.57
2018-07-02T13:32:36.576Z,25.67
2018-07-02T13:33:36.878Z,25.65
2018-07-02T13:34:36.853Z,25.69
2018-07-02T13:35:36.915Z,25.69
2018-07-02T13:36:37.095Z,25.88
2018-07-02T13:37:51.661Z,26.3
2018-07-02T13:38:36.481Z,25.94
2018-07-02T13:39:37.023Z,26.05
2018-07-02T13:40:37.055Z,26.21
2018-07-02T13:41:37.142Z,26.01
2018-07-02T13:42:37.110Z,26.18
2018-07-02T13:43:37.134Z,26.67
2018-07-02T13:44:37.175Z,26.65
2018-07-02T13:45:37.194Z,26.48
2018-07-02T13:46:37.218Z,26.21
2018-07-02T13:47:36.989Z,26.07